sensor_id;sensor_type;location;lat;lon;timestamp;P1;durP1;ratioP1;P2;durP2;ratioP2
60038;SDS011;45916;52.734;6.544;2023-04-25T00:00:28;16.90;;;6.63;;
60038;SDS011;45916;52.734;6.544;2023-04-25T00:02:54;20.75;;;7.53;;
60038;SDS011;45916;52.734;6.544;2023-04-25T00:05:21;22.45;;;6.75;;
60038;SDS011;45916;52.734;6.544;2023-04-25T00:07:48;19.42;;;7.35;;
60038;SDS011;45916;52.734;6.544;2023-04-25T00:10:15;19.52;;;7.32;;
60038;SDS011;45916;52.734;6.544;2023-04-25T00:12:41;16.73;;;7.13;;
60038;SDS011;45916;52.734;6.544;2023-04-25T00:15:07;17.90;;;6.40;;
60038;SDS011;45916;52.734;6.544;2023-04-25T00:17:33;20.02;;;7.43;;
60038;SDS011;45916;52.734;6.544;2023-04-25T00:20:00;21.40;;;6.32;;
60038;SDS011;45916;52.734;6.544;2023-04-25T00:22:29;19.50;;;6.65;;
60038;SDS011;45916;52.734;6.544;2023-04-25T00:24:55;19.58;;;6.65;;
60038;SDS011;45916;52.734;6.544;2023-04-25T00:27:22;19.27;;;7.00;;
60038;SDS011;45916;52.734;6.544;2023-04-25T00:29:47;16.17;;;6.55;;
60038;SDS011;45916;52.734;6.544;2023-04-25T00:32:13;17.10;;;6.22;;
60038;SDS011;45916;52.734;6.544;2023-04-25T00:34:39;20.17;;;6.93;;
60038;SDS011;45916;52.734;6.544;2023-04-25T00:37:04;15.40;;;6.22;;
60038;SDS011;45916;52.734;6.544;2023-04-25T00:39:31;16.77;;;6.68;;
60038;SDS011;45916;52.734;6.544;2023-04-25T00:41:56;15.43;;;7.00;;
60038;SDS011;45916;52.734;6.544;2023-04-25T00:44:23;18.17;;;7.18;;
60038;SDS011;45916;52.734;6.544;2023-04-25T00:46:50;17.70;;;7.65;;
60038;SDS011;45916;52.734;6.544;2023-04-25T00:49:16;16.58;;;7.57;;
60038;SDS011;45916;52.734;6.544;2023-04-25T00:51:42;16.50;;;6.28;;
60038;SDS011;45916;52.734;6.544;2023-04-25T00:54:10;23.77;;;7.47;;
60038;SDS011;45916;52.734;6.544;2023-04-25T00:56:37;15.45;;;7.15;;
60038;SDS011;45916;52.734;6.544;2023-04-25T00:59:03;19.50;;;8.07;;
60038;SDS011;45916;52.734;6.544;2023-04-25T01:01:29;17.67;;;8.20;;
60038;SDS011;45916;52.734;6.544;2023-04-25T01:03:56;24.10;;;7.15;;
60038;SDS011;45916;52.734;6.544;2023-04-25T01:06:24;16.98;;;7.05;;
60038;SDS011;45916;52.734;6.544;2023-04-25T01:08:49;17.90;;;6.90;;
60038;SDS011;45916;52.734;6.544;2023-04-25T01:11:16;16.33;;;6.65;;
60038;SDS011;45916;52.734;6.544;2023-04-25T01:13:42;23.83;;;8.32;;
60038;SDS011;45916;52.734;6.544;2023-04-25T01:16:09;16.23;;;7.38;;
60038;SDS011;45916;52.734;6.544;2023-04-25T01:18:35;21.95;;;8.52;;
60038;SDS011;45916;52.734;6.544;2023-04-25T01:21:07;23.65;;;7.95;;
60038;SDS011;45916;52.734;6.544;2023-04-25T01:23:36;17.48;;;8.30;;
60038;SDS011;45916;52.734;6.544;2023-04-25T01:26:03;18.13;;;7.27;;
60038;SDS011;45916;52.734;6.544;2023-04-25T01:28:30;19.30;;;7.53;;
60038;SDS011;45916;52.734;6.544;2023-04-25T01:33:24;16.13;;;6.90;;
60038;SDS011;45916;52.734;6.544;2023-04-25T01:35:50;14.98;;;7.65;;
60038;SDS011;45916;52.734;6.544;2023-04-25T01:38:15;16.27;;;7.30;;
60038;SDS011;45916;52.734;6.544;2023-04-25T01:40:41;21.98;;;8.85;;
60038;SDS011;45916;52.734;6.544;2023-04-25T01:43:09;18.52;;;7.53;;
60038;SDS011;45916;52.734;6.544;2023-04-25T01:45:37;21.92;;;8.13;;
60038;SDS011;45916;52.734;6.544;2023-04-25T01:48:06;20.23;;;8.35;;
60038;SDS011;45916;52.734;6.544;2023-04-25T01:50:33;18.83;;;7.85;;
60038;SDS011;45916;52.734;6.544;2023-04-25T01:53:02;18.70;;;7.82;;
60038;SDS011;45916;52.734;6.544;2023-04-25T01:55:31;21.42;;;8.93;;
60038;SDS011;45916;52.734;6.544;2023-04-25T01:57:57;18.88;;;7.72;;
60038;SDS011;45916;52.734;6.544;2023-04-25T02:00:25;14.98;;;6.88;;
60038;SDS011;45916;52.734;6.544;2023-04-25T02:02:50;18.88;;;7.38;;
60038;SDS011;45916;52.734;6.544;2023-04-25T02:05:18;17.85;;;6.95;;
60038;SDS011;45916;52.734;6.544;2023-04-25T02:07:44;17.70;;;7.35;;
60038;SDS011;45916;52.734;6.544;2023-04-25T02:10:10;16.90;;;6.63;;
60038;SDS011;45916;52.734;6.544;2023-04-25T02:12:35;14.75;;;6.18;;
60038;SDS011;45916;52.734;6.544;2023-04-25T02:15:01;16.67;;;6.70;;
60038;SDS011;45916;52.734;6.544;2023-04-25T02:17:27;17.58;;;6.63;;
60038;SDS011;45916;52.734;6.544;2023-04-25T02:19:53;16.42;;;5.72;;
60038;SDS011;45916;52.734;6.544;2023-04-25T02:22:18;13.38;;;5.30;;
60038;SDS011;45916;52.734;6.544;2023-04-25T02:24:44;16.33;;;5.57;;
60038;SDS011;45916;52.734;6.544;2023-04-25T02:27:10;15.35;;;4.95;;
60038;SDS011;45916;52.734;6.544;2023-04-25T02:29:36;15.27;;;5.35;;
60038;SDS011;45916;52.734;6.544;2023-04-25T02:32:01;10.15;;;5.43;;
60038;SDS011;45916;52.734;6.544;2023-04-25T02:34:27;14.63;;;5.00;;
60038;SDS011;45916;52.734;6.544;2023-04-25T02:36:53;13.35;;;4.80;;
60038;SDS011;45916;52.734;6.544;2023-04-25T02:39:18;17.58;;;4.95;;
60038;SDS011;45916;52.734;6.544;2023-04-25T02:41:44;15.27;;;5.00;;
60038;SDS011;45916;52.734;6.544;2023-04-25T02:44:10;14.85;;;4.63;;
60038;SDS011;45916;52.734;6.544;2023-04-25T02:46:36;15.60;;;4.75;;
60038;SDS011;45916;52.734;6.544;2023-04-25T02:49:01;13.63;;;4.93;;
60038;SDS011;45916;52.734;6.544;2023-04-25T02:51:27;19.48;;;4.90;;
60038;SDS011;45916;52.734;6.544;2023-04-25T02:53:53;16.77;;;4.68;;
60038;SDS011;45916;52.734;6.544;2023-04-25T02:56:18;15.00;;;4.88;;
60038;SDS011;45916;52.734;6.544;2023-04-25T02:58:44;12.00;;;4.13;;
60038;SDS011;45916;52.734;6.544;2023-04-25T03:01:10;12.45;;;3.80;;
60038;SDS011;45916;52.734;6.544;2023-04-25T03:03:36;10.40;;;3.65;;
60038;SDS011;45916;52.734;6.544;2023-04-25T03:06:01;10.27;;;3.42;;
60038;SDS011;45916;52.734;6.544;2023-04-25T03:08:27;9.15;;;2.92;;
60038;SDS011;45916;52.734;6.544;2023-04-25T03:10:57;10.50;;;3.20;;
60038;SDS011;45916;52.734;6.544;2023-04-25T03:13:23;9.82;;;2.97;;
60038;SDS011;45916;52.734;6.544;2023-04-25T03:15:49;8.93;;;2.97;;
60038;SDS011;45916;52.734;6.544;2023-04-25T03:18:15;8.15;;;3.05;;
60038;SDS011;45916;52.734;6.544;2023-04-25T03:20:41;10.65;;;3.00;;
60038;SDS011;45916;52.734;6.544;2023-04-25T03:23:07;9.27;;;3.05;;
60038;SDS011;45916;52.734;6.544;2023-04-25T03:25:33;7.82;;;2.70;;
60038;SDS011;45916;52.734;6.544;2023-04-25T03:28:00;11.35;;;3.35;;
60038;SDS011;45916;52.734;6.544;2023-04-25T03:30:25;9.70;;;3.58;;
60038;SDS011;45916;52.734;6.544;2023-04-25T03:32:51;10.30;;;3.42;;
60038;SDS011;45916;52.734;6.544;2023-04-25T03:35:17;10.25;;;3.38;;
60038;SDS011;45916;52.734;6.544;2023-04-25T03:37:42;11.60;;;4.00;;
60038;SDS011;45916;52.734;6.544;2023-04-25T03:42:37;12.27;;;3.40;;
60038;SDS011;45916;52.734;6.544;2023-04-25T03:45:02;11.85;;;4.13;;
60038;SDS011;45916;52.734;6.544;2023-04-25T03:47:29;10.20;;;3.55;;
60038;SDS011;45916;52.734;6.544;2023-04-25T03:49:55;11.25;;;3.92;;
60038;SDS011;45916;52.734;6.544;2023-04-25T03:52:20;11.40;;;4.38;;
60038;SDS011;45916;52.734;6.544;2023-04-25T03:54:46;8.93;;;3.40;;
60038;SDS011;45916;52.734;6.544;2023-04-25T03:57:12;11.90;;;3.70;;
60038;SDS011;45916;52.734;6.544;2023-04-25T03:59:37;9.90;;;3.35;;
60038;SDS011;45916;52.734;6.544;2023-04-25T04:02:03;8.77;;;3.72;;
60038;SDS011;45916;52.734;6.544;2023-04-25T04:04:29;11.23;;;4.35;;
60038;SDS011;45916;52.734;6.544;2023-04-25T04:06:55;14.90;;;4.78;;
60038;SDS011;45916;52.734;6.544;2023-04-25T04:09:20;12.07;;;3.50;;
60038;SDS011;45916;52.734;6.544;2023-04-25T04:11:47;8.75;;;3.35;;
60038;SDS011;45916;52.734;6.544;2023-04-25T04:14:12;7.90;;;2.90;;
60038;SDS011;45916;52.734;6.544;2023-04-25T04:16:38;8.98;;;2.83;;
60038;SDS011;45916;52.734;6.544;2023-04-25T04:19:04;6.85;;;3.10;;
60038;SDS011;45916;52.734;6.544;2023-04-25T04:21:30;11.05;;;3.10;;
60038;SDS011;45916;52.734;6.544;2023-04-25T04:23:57;8.98;;;3.30;;
60038;SDS011;45916;52.734;6.544;2023-04-25T04:26:25;11.80;;;3.10;;
60038;SDS011;45916;52.734;6.544;2023-04-25T04:28:51;9.57;;;3.05;;
60038;SDS011;45916;52.734;6.544;2023-04-25T04:31:19;11.02;;;3.35;;
60038;SDS011;45916;52.734;6.544;2023-04-25T04:33:46;7.32;;;2.80;;
60038;SDS011;45916;52.734;6.544;2023-04-25T04:36:12;11.93;;;2.97;;
60038;SDS011;45916;52.734;6.544;2023-04-25T04:38:38;12.43;;;3.75;;
60038;SDS011;45916;52.734;6.544;2023-04-25T04:41:05;13.02;;;3.20;;
60038;SDS011;45916;52.734;6.544;2023-04-25T04:43:31;11.00;;;3.75;;
60038;SDS011;45916;52.734;6.544;2023-04-25T04:45:58;9.63;;;2.95;;
60038;SDS011;45916;52.734;6.544;2023-04-25T04:48:28;11.13;;;3.95;;
60038;SDS011;45916;52.734;6.544;2023-04-25T04:50:57;13.85;;;3.50;;
60038;SDS011;45916;52.734;6.544;2023-04-25T04:53:23;9.77;;;3.00;;
60038;SDS011;45916;52.734;6.544;2023-04-25T04:55:49;14.15;;;3.53;;
60038;SDS011;45916;52.734;6.544;2023-04-25T04:58:15;11.20;;;3.97;;
60038;SDS011;45916;52.734;6.544;2023-04-25T05:00:41;8.68;;;3.05;;
60038;SDS011;45916;52.734;6.544;2023-04-25T05:03:06;16.33;;;4.07;;
60038;SDS011;45916;52.734;6.544;2023-04-25T05:05:32;10.18;;;3.70;;
60038;SDS011;45916;52.734;6.544;2023-04-25T05:07:58;11.65;;;3.50;;
60038;SDS011;45916;52.734;6.544;2023-04-25T05:10:23;13.90;;;4.10;;
60038;SDS011;45916;52.734;6.544;2023-04-25T05:12:49;11.32;;;3.80;;
60038;SDS011;45916;52.734;6.544;2023-04-25T05:15:15;13.50;;;3.65;;
60038;SDS011;45916;52.734;6.544;2023-04-25T05:17:41;14.13;;;3.75;;
60038;SDS011;45916;52.734;6.544;2023-04-25T05:20:07;12.50;;;3.90;;
60038;SDS011;45916;52.734;6.544;2023-04-25T05:22:34;12.00;;;3.57;;
60038;SDS011;45916;52.734;6.544;2023-04-25T05:25:00;11.48;;;3.35;;
60038;SDS011;45916;52.734;6.544;2023-04-25T05:27:26;14.70;;;3.45;;
60038;SDS011;45916;52.734;6.544;2023-04-25T05:29:51;12.68;;;4.00;;
60038;SDS011;45916;52.734;6.544;2023-04-25T05:32:17;13.13;;;4.05;;
60038;SDS011;45916;52.734;6.544;2023-04-25T05:34:43;11.57;;;4.30;;
60038;SDS011;45916;52.734;6.544;2023-04-25T05:37:09;14.48;;;3.72;;
60038;SDS011;45916;52.734;6.544;2023-04-25T05:39:35;13.02;;;3.38;;
60038;SDS011;45916;52.734;6.544;2023-04-25T05:42:01;12.98;;;3.53;;
60038;SDS011;45916;52.734;6.544;2023-04-25T05:44:27;10.88;;;3.60;;
60038;SDS011;45916;52.734;6.544;2023-04-25T05:46:53;10.75;;;3.13;;
60038;SDS011;45916;52.734;6.544;2023-04-25T05:49:18;9.98;;;3.38;;
60038;SDS011;45916;52.734;6.544;2023-04-25T05:51:44;9.25;;;3.00;;
60038;SDS011;45916;52.734;6.544;2023-04-25T05:54:10;10.57;;;2.88;;
60038;SDS011;45916;52.734;6.544;2023-04-25T05:56:35;9.27;;;3.28;;
60038;SDS011;45916;52.734;6.544;2023-04-25T05:59:01;11.25;;;3.25;;
60038;SDS011;45916;52.734;6.544;2023-04-25T06:01:27;10.73;;;3.30;;
60038;SDS011;45916;52.734;6.544;2023-04-25T06:03:53;9.70;;;2.97;;
60038;SDS011;45916;52.734;6.544;2023-04-25T06:06:18;9.85;;;2.97;;
60038;SDS011;45916;52.734;6.544;2023-04-25T06:08:44;9.95;;;2.35;;
60038;SDS011;45916;52.734;6.544;2023-04-25T06:11:10;11.50;;;3.17;;
60038;SDS011;45916;52.734;6.544;2023-04-25T06:13:36;11.95;;;2.65;;
60038;SDS011;45916;52.734;6.544;2023-04-25T06:16:01;12.40;;;3.65;;
60038;SDS011;45916;52.734;6.544;2023-04-25T06:18:27;7.93;;;2.70;;
60038;SDS011;45916;52.734;6.544;2023-04-25T06:20:53;10.27;;;3.13;;
60038;SDS011;45916;52.734;6.544;2023-04-25T06:23:18;9.02;;;3.33;;
60038;SDS011;45916;52.734;6.544;2023-04-25T06:25:44;11.50;;;2.85;;
60038;SDS011;45916;52.734;6.544;2023-04-25T06:28:10;9.70;;;3.17;;
60038;SDS011;45916;52.734;6.544;2023-04-25T06:30:35;9.23;;;2.40;;
60038;SDS011;45916;52.734;6.544;2023-04-25T06:33:01;6.78;;;2.45;;
60038;SDS011;45916;52.734;6.544;2023-04-25T06:35:27;9.25;;;2.90;;
60038;SDS011;45916;52.734;6.544;2023-04-25T06:37:52;10.63;;;2.85;;
60038;SDS011;45916;52.734;6.544;2023-04-25T06:40:18;10.68;;;2.80;;
60038;SDS011;45916;52.734;6.544;2023-04-25T06:42:44;8.05;;;2.70;;
60038;SDS011;45916;52.734;6.544;2023-04-25T06:45:10;12.98;;;4.20;;
60038;SDS011;45916;52.734;6.544;2023-04-25T06:47:35;6.63;;;2.00;;
60038;SDS011;45916;52.734;6.544;2023-04-25T06:50:01;8.77;;;2.40;;
60038;SDS011;45916;52.734;6.544;2023-04-25T06:52:27;9.85;;;2.50;;
60038;SDS011;45916;52.734;6.544;2023-04-25T06:54:53;8.50;;;2.20;;
60038;SDS011;45916;52.734;6.544;2023-04-25T06:57:18;9.43;;;2.15;;
60038;SDS011;45916;52.734;6.544;2023-04-25T06:59:44;8.30;;;2.45;;
60038;SDS011;45916;52.734;6.544;2023-04-25T07:02:10;5.97;;;1.60;;
60038;SDS011;45916;52.734;6.544;2023-04-25T07:04:35;7.68;;;2.17;;
60038;SDS011;45916;52.734;6.544;2023-04-25T07:07:01;7.60;;;1.92;;
60038;SDS011;45916;52.734;6.544;2023-04-25T07:09:28;6.93;;;1.88;;
60038;SDS011;45916;52.734;6.544;2023-04-25T07:11:54;8.07;;;2.20;;
60038;SDS011;45916;52.734;6.544;2023-04-25T07:14:20;6.47;;;1.98;;
60038;SDS011;45916;52.734;6.544;2023-04-25T07:16:45;5.70;;;1.60;;
60038;SDS011;45916;52.734;6.544;2023-04-25T07:19:11;7.53;;;2.00;;
60038;SDS011;45916;52.734;6.544;2023-04-25T07:21:37;6.65;;;1.95;;
60038;SDS011;45916;52.734;6.544;2023-04-25T07:24:03;7.50;;;2.25;;
60038;SDS011;45916;52.734;6.544;2023-04-25T07:26:29;7.95;;;2.13;;
60038;SDS011;45916;52.734;6.544;2023-04-25T07:28:54;6.32;;;1.55;;
60038;SDS011;45916;52.734;6.544;2023-04-25T07:31:21;6.05;;;1.38;;
60038;SDS011;45916;52.734;6.544;2023-04-25T07:33:47;4.38;;;1.25;;
60038;SDS011;45916;52.734;6.544;2023-04-25T07:36:13;6.72;;;1.33;;
60038;SDS011;45916;52.734;6.544;2023-04-25T07:38:40;4.57;;;1.25;;
60038;SDS011;45916;52.734;6.544;2023-04-25T07:41:06;5.30;;;1.50;;
60038;SDS011;45916;52.734;6.544;2023-04-25T07:43:31;7.18;;;1.40;;
60038;SDS011;45916;52.734;6.544;2023-04-25T07:45:57;5.57;;;1.60;;
60038;SDS011;45916;52.734;6.544;2023-04-25T07:48:23;6.32;;;1.20;;
60038;SDS011;45916;52.734;6.544;2023-04-25T07:50:48;5.65;;;1.40;;
60038;SDS011;45916;52.734;6.544;2023-04-25T07:53:14;5.65;;;1.58;;
60038;SDS011;45916;52.734;6.544;2023-04-25T07:55:43;4.47;;;1.30;;
60038;SDS011;45916;52.734;6.544;2023-04-25T07:58:08;7.90;;;1.55;;
60038;SDS011;45916;52.734;6.544;2023-04-25T08:00:35;7.20;;;1.33;;
60038;SDS011;45916;52.734;6.544;2023-04-25T08:03:01;4.88;;;1.40;;
60038;SDS011;45916;52.734;6.544;2023-04-25T08:05:27;6.93;;;1.50;;
60038;SDS011;45916;52.734;6.544;2023-04-25T08:07:53;5.68;;;1.52;;
60038;SDS011;45916;52.734;6.544;2023-04-25T08:10:19;5.82;;;1.58;;
60038;SDS011;45916;52.734;6.544;2023-04-25T08:12:45;8.57;;;1.48;;
60038;SDS011;45916;52.734;6.544;2023-04-25T08:15:11;5.93;;;1.33;;
60038;SDS011;45916;52.734;6.544;2023-04-25T08:17:39;6.70;;;1.50;;
60038;SDS011;45916;52.734;6.544;2023-04-25T08:20:05;7.95;;;1.40;;
60038;SDS011;45916;52.734;6.544;2023-04-25T08:22:31;8.15;;;1.50;;
60038;SDS011;45916;52.734;6.544;2023-04-25T08:24:57;7.63;;;1.52;;
60038;SDS011;45916;52.734;6.544;2023-04-25T08:27:23;7.50;;;2.85;;
60038;SDS011;45916;52.734;6.544;2023-04-25T08:29:49;8.55;;;1.63;;
60038;SDS011;45916;52.734;6.544;2023-04-25T08:32:15;5.43;;;1.67;;
60038;SDS011;45916;52.734;6.544;2023-04-25T08:34:41;7.35;;;1.65;;
60038;SDS011;45916;52.734;6.544;2023-04-25T08:37:09;6.28;;;1.90;;
60038;SDS011;45916;52.734;6.544;2023-04-25T08:39:38;6.30;;;0.93;;
60038;SDS011;45916;52.734;6.544;2023-04-25T08:42:05;3.80;;;1.20;;
60038;SDS011;45916;52.734;6.544;2023-04-25T08:44:35;5.18;;;1.10;;
60038;SDS011;45916;52.734;6.544;2023-04-25T08:47:04;3.25;;;0.95;;
60038;SDS011;45916;52.734;6.544;2023-04-25T08:49:33;4.57;;;1.23;;
60038;SDS011;45916;52.734;6.544;2023-04-25T08:52:00;4.40;;;1.20;;
60038;SDS011;45916;52.734;6.544;2023-04-25T08:54:27;5.78;;;1.20;;
60038;SDS011;45916;52.734;6.544;2023-04-25T08:56:56;5.07;;;1.48;;
60038;SDS011;45916;52.734;6.544;2023-04-25T08:59:23;7.30;;;1.63;;
60038;SDS011;45916;52.734;6.544;2023-04-25T09:01:49;7.82;;;2.00;;
60038;SDS011;45916;52.734;6.544;2023-04-25T09:04:17;7.00;;;1.52;;
60038;SDS011;45916;52.734;6.544;2023-04-25T09:06:43;5.38;;;1.27;;
60038;SDS011;45916;52.734;6.544;2023-04-25T09:09:08;6.03;;;1.50;;
60038;SDS011;45916;52.734;6.544;2023-04-25T09:14:10;4.00;;;1.00;;
60038;SDS011;45916;52.734;6.544;2023-04-25T09:19:38;3.78;;;1.40;;
60038;SDS011;45916;52.734;6.544;2023-04-25T09:22:05;7.43;;;1.52;;
60038;SDS011;45916;52.734;6.544;2023-04-25T09:24:33;6.38;;;1.40;;
60038;SDS011;45916;52.734;6.544;2023-04-25T09:27:13;7.32;;;1.83;;
60038;SDS011;45916;52.734;6.544;2023-04-25T09:29:44;5.70;;;1.38;;
60038;SDS011;45916;52.734;6.544;2023-04-25T09:34:50;5.78;;;1.35;;
60038;SDS011;45916;52.734;6.544;2023-04-25T09:37:28;5.90;;;1.45;;
60038;SDS011;45916;52.734;6.544;2023-04-25T09:39:58;7.30;;;1.80;;
60038;SDS011;45916;52.734;6.544;2023-04-25T09:42:28;7.13;;;1.95;;
60038;SDS011;45916;52.734;6.544;2023-04-25T09:44:56;4.80;;;1.60;;
60038;SDS011;45916;52.734;6.544;2023-04-25T09:47:24;6.50;;;1.80;;
60038;SDS011;45916;52.734;6.544;2023-04-25T09:49:52;7.75;;;1.42;;
60038;SDS011;45916;52.734;6.544;2023-04-25T09:52:19;7.35;;;1.88;;
60038;SDS011;45916;52.734;6.544;2023-04-25T09:57:14;6.82;;;1.70;;
60038;SDS011;45916;52.734;6.544;2023-04-25T09:59:48;5.53;;;1.85;;
60038;SDS011;45916;52.734;6.544;2023-04-25T10:02:18;6.13;;;2.10;;
60038;SDS011;45916;52.734;6.544;2023-04-25T10:04:51;6.22;;;1.65;;
60038;SDS011;45916;52.734;6.544;2023-04-25T10:07:20;6.85;;;1.75;;
60038;SDS011;45916;52.734;6.544;2023-04-25T10:09:50;5.10;;;1.60;;
60038;SDS011;45916;52.734;6.544;2023-04-25T10:12:24;4.68;;;1.58;;
60038;SDS011;45916;52.734;6.544;2023-04-25T10:14:51;5.53;;;1.27;;
60038;SDS011;45916;52.734;6.544;2023-04-25T10:17:18;6.97;;;1.80;;
60038;SDS011;45916;52.734;6.544;2023-04-25T10:19:46;6.45;;;1.75;;
60038;SDS011;45916;52.734;6.544;2023-04-25T10:24:59;6.25;;;1.60;;
60038;SDS011;45916;52.734;6.544;2023-04-25T10:27:28;7.55;;;1.70;;
60038;SDS011;45916;52.734;6.544;2023-04-25T10:32:41;7.03;;;1.77;;
60038;SDS011;45916;52.734;6.544;2023-04-25T10:35:17;6.05;;;1.58;;
60038;SDS011;45916;52.734;6.544;2023-04-25T10:40:30;6.25;;;1.60;;
60038;SDS011;45916;52.734;6.544;2023-04-25T10:43:34;7.55;;;1.65;;
60038;SDS011;45916;52.734;6.544;2023-04-25T10:46:17;6.47;;;1.75;;
60038;SDS011;45916;52.734;6.544;2023-04-25T10:48:45;9.32;;;2.45;;
60038;SDS011;45916;52.734;6.544;2023-04-25T10:51:17;6.63;;;2.03;;
60038;SDS011;45916;52.734;6.544;2023-04-25T10:53:47;6.22;;;1.90;;
60038;SDS011;45916;52.734;6.544;2023-04-25T10:56:26;5.85;;;1.65;;
60038;SDS011;45916;52.734;6.544;2023-04-25T10:59:17;5.82;;;1.70;;
60038;SDS011;45916;52.734;6.544;2023-04-25T11:01:47;8.63;;;1.98;;
60038;SDS011;45916;52.734;6.544;2023-04-25T11:04:30;6.43;;;1.80;;
60038;SDS011;45916;52.734;6.544;2023-04-25T11:09:38;6.47;;;1.52;;
60038;SDS011;45916;52.734;6.544;2023-04-25T11:12:07;4.75;;;1.70;;
60038;SDS011;45916;52.734;6.544;2023-04-25T11:14:33;7.78;;;1.85;;
60038;SDS011;45916;52.734;6.544;2023-04-25T11:16:59;8.55;;;1.90;;
60038;SDS011;45916;52.734;6.544;2023-04-25T11:19:27;11.10;;;2.53;;
60038;SDS011;45916;52.734;6.544;2023-04-25T11:22:00;6.88;;;2.10;;
60038;SDS011;45916;52.734;6.544;2023-04-25T11:24:27;12.55;;;2.40;;
60038;SDS011;45916;52.734;6.544;2023-04-25T11:27:00;6.35;;;1.85;;
60038;SDS011;45916;52.734;6.544;2023-04-25T11:29:30;7.10;;;2.30;;
60038;SDS011;45916;52.734;6.544;2023-04-25T11:31:56;7.17;;;1.77;;
60038;SDS011;45916;52.734;6.544;2023-04-25T11:34:23;6.72;;;2.38;;
60038;SDS011;45916;52.734;6.544;2023-04-25T11:36:52;6.25;;;1.98;;
60038;SDS011;45916;52.734;6.544;2023-04-25T11:39:19;7.32;;;1.63;;
60038;SDS011;45916;52.734;6.544;2023-04-25T11:41:45;7.72;;;2.05;;
60038;SDS011;45916;52.734;6.544;2023-04-25T11:44:11;7.32;;;1.98;;
60038;SDS011;45916;52.734;6.544;2023-04-25T11:46:40;6.10;;;1.90;;
60038;SDS011;45916;52.734;6.544;2023-04-25T11:49:05;6.70;;;1.73;;
60038;SDS011;45916;52.734;6.544;2023-04-25T11:51:37;8.80;;;1.73;;
60038;SDS011;45916;52.734;6.544;2023-04-25T11:54:04;8.75;;;2.03;;
60038;SDS011;45916;52.734;6.544;2023-04-25T11:56:30;6.20;;;1.80;;
60038;SDS011;45916;52.734;6.544;2023-04-25T11:59:01;5.82;;;1.90;;
60038;SDS011;45916;52.734;6.544;2023-04-25T12:01:31;5.75;;;2.13;;
60038;SDS011;45916;52.734;6.544;2023-04-25T12:04:09;7.45;;;2.15;;
60038;SDS011;45916;52.734;6.544;2023-04-25T12:06:39;6.82;;;1.83;;
60038;SDS011;45916;52.734;6.544;2023-04-25T12:09:07;5.32;;;1.83;;
60038;SDS011;45916;52.734;6.544;2023-04-25T12:11:42;5.60;;;1.75;;
60038;SDS011;45916;52.734;6.544;2023-04-25T12:14:09;5.35;;;1.65;;
60038;SDS011;45916;52.734;6.544;2023-04-25T12:16:42;7.10;;;2.25;;
60038;SDS011;45916;52.734;6.544;2023-04-25T12:19:09;7.75;;;2.17;;
60038;SDS011;45916;52.734;6.544;2023-04-25T12:21:38;5.85;;;1.50;;
60038;SDS011;45916;52.734;6.544;2023-04-25T12:24:17;6.55;;;2.00;;
60038;SDS011;45916;52.734;6.544;2023-04-25T12:29:17;6.22;;;2.00;;
60038;SDS011;45916;52.734;6.544;2023-04-25T12:31:48;6.90;;;2.05;;
60038;SDS011;45916;52.734;6.544;2023-04-25T12:34:15;5.80;;;2.08;;
60038;SDS011;45916;52.734;6.544;2023-04-25T12:36:41;8.05;;;2.05;;
60038;SDS011;45916;52.734;6.544;2023-04-25T12:39:07;5.60;;;1.73;;
60038;SDS011;45916;52.734;6.544;2023-04-25T12:41:33;6.75;;;1.95;;
60038;SDS011;45916;52.734;6.544;2023-04-25T12:43:59;7.32;;;1.83;;
60038;SDS011;45916;52.734;6.544;2023-04-25T12:46:25;5.45;;;1.55;;
60038;SDS011;45916;52.734;6.544;2023-04-25T12:48:50;7.45;;;2.00;;
60038;SDS011;45916;52.734;6.544;2023-04-25T12:51:16;7.70;;;1.77;;
60038;SDS011;45916;52.734;6.544;2023-04-25T12:53:42;5.43;;;1.73;;
60038;SDS011;45916;52.734;6.544;2023-04-25T12:56:08;9.30;;;2.15;;
60038;SDS011;45916;52.734;6.544;2023-04-25T12:58:33;6.47;;;2.42;;
60038;SDS011;45916;52.734;6.544;2023-04-25T13:00:59;6.15;;;1.73;;
60038;SDS011;45916;52.734;6.544;2023-04-25T13:03:28;8.35;;;2.50;;
60038;SDS011;45916;52.734;6.544;2023-04-25T13:05:53;6.70;;;2.38;;
60038;SDS011;45916;52.734;6.544;2023-04-25T13:08:19;7.95;;;2.47;;
60038;SDS011;45916;52.734;6.544;2023-04-25T13:10:45;8.35;;;2.22;;
60038;SDS011;45916;52.734;6.544;2023-04-25T13:13:12;9.77;;;1.80;;
60038;SDS011;45916;52.734;6.544;2023-04-25T13:15:38;6.63;;;1.98;;
60038;SDS011;45916;52.734;6.544;2023-04-25T13:18:04;4.90;;;1.70;;
60038;SDS011;45916;52.734;6.544;2023-04-25T13:20:32;6.90;;;1.60;;
60038;SDS011;45916;52.734;6.544;2023-04-25T13:22:58;7.15;;;1.88;;
60038;SDS011;45916;52.734;6.544;2023-04-25T13:25:24;6.50;;;2.00;;
60038;SDS011;45916;52.734;6.544;2023-04-25T13:27:50;7.70;;;1.52;;
60038;SDS011;45916;52.734;6.544;2023-04-25T13:30:16;4.80;;;1.40;;
60038;SDS011;45916;52.734;6.544;2023-04-25T13:32:42;6.13;;;1.88;;
60038;SDS011;45916;52.734;6.544;2023-04-25T13:35:09;8.07;;;1.92;;
60038;SDS011;45916;52.734;6.544;2023-04-25T13:37:37;7.93;;;2.20;;
60038;SDS011;45916;52.734;6.544;2023-04-25T13:40:04;5.20;;;1.90;;
60038;SDS011;45916;52.734;6.544;2023-04-25T13:42:34;6.20;;;2.15;;
60038;SDS011;45916;52.734;6.544;2023-04-25T13:45:00;9.00;;;2.35;;
60038;SDS011;45916;52.734;6.544;2023-04-25T13:47:26;8.60;;;1.95;;
60038;SDS011;45916;52.734;6.544;2023-04-25T13:49:52;9.13;;;2.17;;
60038;SDS011;45916;52.734;6.544;2023-04-25T13:52:18;7.45;;;2.28;;
60038;SDS011;45916;52.734;6.544;2023-04-25T13:54:44;6.32;;;2.53;;
60038;SDS011;45916;52.734;6.544;2023-04-25T13:57:10;5.95;;;1.73;;
60038;SDS011;45916;52.734;6.544;2023-04-25T13:59:36;7.05;;;2.10;;
60038;SDS011;45916;52.734;6.544;2023-04-25T14:02:02;7.97;;;2.10;;
60038;SDS011;45916;52.734;6.544;2023-04-25T14:04:28;6.15;;;1.80;;
60038;SDS011;45916;52.734;6.544;2023-04-25T14:06:54;7.22;;;1.92;;
60038;SDS011;45916;52.734;6.544;2023-04-25T14:09:21;6.57;;;1.80;;
60038;SDS011;45916;52.734;6.544;2023-04-25T14:11:51;7.38;;;1.85;;
60038;SDS011;45916;52.734;6.544;2023-04-25T14:14:17;7.07;;;1.65;;
60038;SDS011;45916;52.734;6.544;2023-04-25T14:16:43;10.27;;;2.58;;
60038;SDS011;45916;52.734;6.544;2023-04-25T14:19:09;7.78;;;1.80;;
60038;SDS011;45916;52.734;6.544;2023-04-25T14:21:35;7.95;;;1.80;;
60038;SDS011;45916;52.734;6.544;2023-04-25T14:24:01;7.80;;;2.15;;
60038;SDS011;45916;52.734;6.544;2023-04-25T14:26:26;5.30;;;1.52;;
60038;SDS011;45916;52.734;6.544;2023-04-25T14:28:52;6.13;;;1.85;;
60038;SDS011;45916;52.734;6.544;2023-04-25T14:31:18;6.13;;;2.33;;
60038;SDS011;45916;52.734;6.544;2023-04-25T14:33:43;8.60;;;2.05;;
60038;SDS011;45916;52.734;6.544;2023-04-25T14:36:10;5.70;;;1.98;;
60038;SDS011;45916;52.734;6.544;2023-04-25T14:38:36;4.13;;;1.67;;
60038;SDS011;45916;52.734;6.544;2023-04-25T14:41:03;9.60;;;2.30;;
60038;SDS011;45916;52.734;6.544;2023-04-25T14:43:28;5.93;;;2.22;;
60038;SDS011;45916;52.734;6.544;2023-04-25T14:45:54;5.03;;;1.75;;
60038;SDS011;45916;52.734;6.544;2023-04-25T14:48:20;7.22;;;2.33;;
60038;SDS011;45916;52.734;6.544;2023-04-25T14:50:46;5.55;;;1.85;;
60038;SDS011;45916;52.734;6.544;2023-04-25T14:53:11;8.93;;;2.50;;
60038;SDS011;45916;52.734;6.544;2023-04-25T14:55:37;6.80;;;2.15;;
60038;SDS011;45916;52.734;6.544;2023-04-25T14:58:03;7.70;;;2.13;;
60038;SDS011;45916;52.734;6.544;2023-04-25T15:00:29;7.88;;;2.85;;
60038;SDS011;45916;52.734;6.544;2023-04-25T15:02:56;10.13;;;2.63;;
60038;SDS011;45916;52.734;6.544;2023-04-25T15:05:23;7.93;;;2.25;;
60038;SDS011;45916;52.734;6.544;2023-04-25T15:07:49;9.63;;;2.42;;
60038;SDS011;45916;52.734;6.544;2023-04-25T15:10:16;8.88;;;2.65;;